Terminal Aerodrome Forecast
Issued by NWS

Home | Current Version | Previous Version | Text Only | Print | Product List | Glossary On
Versions: 1 2 3 4 5 6 7 8 9 10 11 12 13 14 15 16 17
000
FTUS44 KJAN 251140
TAFHKS
TAF
KHKS 251140Z 2512/2612 14008KT P6SM -SHRA SCT015 OVC050
     FM251500 15013KT P6SM -SHRA VCTS OVC015CB
     FM252100 15014KT P6SM -SHRA VCTS OVC040CB
     FM260000 14014KT P6SM -SHRA VCTS OVC030CB
     FM260900 17009KT P6SM -SHRA OVC015=

USA.gov is the U.S. government's official web portal to all federal, state and local government web resources and services.